createdAt,value
2018-12-18T08:27:54.510Z,2.00
2018-12-18T08:30:23.744Z,1.90
2018-12-18T08:32:52.456Z,1.80
2018-12-18T08:35:21.404Z,1.80
2018-12-18T08:37:56.812Z,1.90
2018-12-18T08:40:25.697Z,2.20
2018-12-18T08:42:59.654Z,2.30
2018-12-18T08:45:28.811Z,2.20
2018-12-18T08:47:57.657Z,2.20
2018-12-18T08:50:27.335Z,2.10
2018-12-18T08:52:57.042Z,2.00
2018-12-18T08:55:27.900Z,2.00
2018-12-18T08:57:56.565Z,2.00
2018-12-18T09:00:28.486Z,1.90
2018-12-18T09:03:09.844Z,2.20
2018-12-18T09:05:43.069Z,2.40
2018-12-18T09:08:10.546Z,2.60
2018-12-18T09:10:40.554Z,2.70
2018-12-18T09:13:09.974Z,2.80
2018-12-18T09:15:45.102Z,3.00
2018-12-18T09:18:18.047Z,3.10
2018-12-18T09:20:49.466Z,3.10
2018-12-18T09:23:18.314Z,3.00
2018-12-18T09:25:56.650Z,3.20
2018-12-18T09:28:40.684Z,3.30
2018-12-18T09:31:10.746Z,3.40
2018-12-18T09:33:39.583Z,3.40
2018-12-18T09:36:20.265Z,3.30
2018-12-18T09:38:54.350Z,3.30
2018-12-18T09:41:31.587Z,3.40
2018-12-18T09:44:10.911Z,3.50
2018-12-18T09:46:41.773Z,3.40
2018-12-18T09:49:13.419Z,3.20
2018-12-18T09:51:42.078Z,3.00
2018-12-18T09:54:11.127Z,3.00
2018-12-18T09:56:53.581Z,2.90
2018-12-18T09:59:23.177Z,2.90
2018-12-18T10:01:52.977Z,2.80
2018-12-18T10:04:22.107Z,2.90
2018-12-18T10:06:55.562Z,2.80
2018-12-18T10:09:24.436Z,2.70
2018-12-18T10:11:53.087Z,3.10
2018-12-18T10:14:23.254Z,3.20
2018-12-18T10:16:53.043Z,3.40
2018-12-18T10:19:21.791Z,3.70
2018-12-18T10:21:50.532Z,4.00
2018-12-18T10:32:20.765Z,4.10
2018-12-18T10:34:49.339Z,3.90
2018-12-18T10:40:19.986Z,3.60
2018-12-18T10:42:48.702Z,3.70
2018-12-18T10:45:19.937Z,3.70
2018-12-18T10:50:41.830Z,3.80
2018-12-18T10:53:11.739Z,3.80
2018-12-18T10:55:41.337Z,3.80
2018-12-18T10:58:13.315Z,3.80
2018-12-18T11:00:47.487Z,3.90
2018-12-18T11:03:16.234Z,4.00
2018-12-18T11:05:58.926Z,4.20
2018-12-18T11:08:28.255Z,4.20
2018-12-18T11:11:10.538Z,4.30
2018-12-18T11:13:42.322Z,4.30
2018-12-18T11:16:51.881Z,4.40
2018-12-18T11:19:31.586Z,4.50
2018-12-18T11:22:01.298Z,4.50
2018-12-18T11:24:32.144Z,4.60
2018-12-18T11:39:51.624Z,5.30
2018-12-18T11:42:20.751Z,5.30
2018-12-18T11:44:51.539Z,5.30
2018-12-18T11:47:20.356Z,5.40
2018-12-18T11:49:50.130Z,5.50
2018-12-18T11:52:18.919Z,5.60
2018-12-18T11:54:50.040Z,5.70
2018-12-18T11:57:19.185Z,5.80
2018-12-18T12:01:48.855Z,5.80
2018-12-18T12:07:18.896Z,6.10
2018-12-18T12:09:47.627Z,6.20
2018-12-18T12:12:17.163Z,6.20
2018-12-18T12:14:45.947Z,6.30
2018-12-18T12:17:16.359Z,6.40
2018-12-18T12:19:45.128Z,6.50
2018-12-18T12:22:13.693Z,6.40
2018-12-18T12:24:42.522Z,6.50
2018-12-18T12:27:17.392Z,6.50
2018-12-18T12:29:46.674Z,6.60
2018-12-18T12:32:15.479Z,6.60
2018-12-18T12:34:44.209Z,6.70
2018-12-18T12:37:12.823Z,6.70
2018-12-18T12:39:45.638Z,6.80
2018-12-18T12:42:14.383Z,6.90
2018-12-18T12:44:43.306Z,6.90
2018-12-18T12:47:14.349Z,7.00
2018-12-18T12:49:43.853Z,7.00
2018-12-18T12:52:13.019Z,7.00
2018-12-18T12:54:41.685Z,7.00
2018-12-18T12:57:11.435Z,7.00
2018-12-18T12:59:40.273Z,7.00
2018-12-18T13:02:09.241Z,7.00
2018-12-18T13:04:38.821Z,7.10
2018-12-18T13:19:03.215Z,7.00
2018-12-18T13:21:34.317Z,7.10
2018-12-18T13:24:02.922Z,7.10
2018-12-18T13:26:31.714Z,7.10
2018-12-18T13:29:00.326Z,7.10
2018-12-18T13:43:33.984Z,7.10
2018-12-18T13:46:02.723Z,7.20
2018-12-18T13:48:31.239Z,7.20
2018-12-18T13:50:59.785Z,7.10
2018-12-18T13:53:28.542Z,7.10
2018-12-18T14:02:08.453Z,6.90
2018-12-18T14:04:37.358Z,6.80
2018-12-18T14:07:05.984Z,6.80
2018-12-18T14:09:37.221Z,6.80
2018-12-18T14:12:06.329Z,6.70
2018-12-18T14:14:34.783Z,6.70
2018-12-18T14:17:03.602Z,6.60
2018-12-18T14:19:33.041Z,6.50
2018-12-18T14:22:01.675Z,6.50
2018-12-18T14:54:50.863Z,6.00
2018-12-18T14:57:40.078Z,6.00
2018-12-18T15:03:01.346Z,5.80
2018-12-18T15:05:30.248Z,5.90
2018-12-18T15:07:58.818Z,5.90
2018-12-18T15:10:27.917Z,5.90
2018-12-18T15:12:56.530Z,5.90
2018-12-18T15:15:25.433Z,5.80
2018-12-18T15:17:54.507Z,5.80
2018-12-18T15:20:23.222Z,5.80
2018-12-18T15:23:11.304Z,5.70
2018-12-18T15:25:57.590Z,5.60
2018-12-18T15:28:50.082Z,5.60
2018-12-18T15:31:20.413Z,5.50
2018-12-18T15:33:49.016Z,5.50
2018-12-18T15:36:40.268Z,5.50
2018-12-18T15:41:49.360Z,5.30
2018-12-18T15:44:18.035Z,5.20
2018-12-18T15:46:46.677Z,5.20
2018-12-18T15:49:15.468Z,5.20
2018-12-18T15:51:44.040Z,5.10
2018-12-18T15:54:12.730Z,5.10
2018-12-18T15:56:42.035Z,5.00
2018-12-18T15:59:10.650Z,4.90
2018-12-18T16:01:39.456Z,4.70
2018-12-18T16:04:16.108Z,4.70
2018-12-18T16:18:31.797Z,4.40
2018-12-18T16:24:03.458Z,4.30
2018-12-18T16:26:32.678Z,4.30
2018-12-18T16:29:01.296Z,4.30
2018-12-18T16:31:29.915Z,4.20
2018-12-18T16:33:59.615Z,4.20
2018-12-18T16:36:28.164Z,4.10
2018-12-18T16:38:56.916Z,4.10
2018-12-18T16:47:37.232Z,4.00
2018-12-18T16:50:13.800Z,3.90
2018-12-18T16:52:49.823Z,3.90
2018-12-18T16:58:28.287Z,4.10
2018-12-18T17:01:03.151Z,4.10
2018-12-18T17:03:39.510Z,4.10
2018-12-18T17:06:17.488Z,4.20
2018-12-18T17:08:49.629Z,4.20
2018-12-18T17:11:18.221Z,4.20
2018-12-18T17:13:52.555Z,4.20
2018-12-18T17:22:44.293Z,4.20
2018-12-18T17:25:30.876Z,4.10
2018-12-18T17:52:39.088Z,4.00
2018-12-18T17:55:10.192Z,3.90
2018-12-18T17:57:54.814Z,3.80
2018-12-18T18:06:51.598Z,3.70
2018-12-18T18:15:46.212Z,3.50
2018-12-18T18:18:34.069Z,3.50
2018-12-18T18:27:15.161Z,3.60
2018-12-18T18:29:49.770Z,3.60
2018-12-18T18:32:36.954Z,3.60
2018-12-18T19:14:45.082Z,2.70
2018-12-18T19:38:34.666Z,2.30
2018-12-18T19:41:03.331Z,2.30
2018-12-18T19:43:31.952Z,2.30
2018-12-18T19:46:00.714Z,2.30
2018-12-18T19:48:32.765Z,2.30
2018-12-18T19:51:02.001Z,2.40
2018-12-18T19:53:31.118Z,2.40
2018-12-18T19:56:11.858Z,2.20
2018-12-18T20:00:15.762Z,2.30
2018-12-18T20:02:44.711Z,2.20
2018-12-18T20:05:13.579Z,2.20
2018-12-18T20:07:45.909Z,2.20
2018-12-18T20:10:15.761Z,2.20
